createdAt,value
2018-09-17T04:02:33.987Z,93.90
2018-09-17T04:05:02.127Z,93.00
2018-09-17T04:07:30.277Z,92.70
2018-09-17T04:09:58.420Z,91.70
2018-09-17T04:12:26.582Z,92.80
2018-09-17T04:14:54.728Z,87.20
2018-09-17T04:17:22.941Z,88.00
2018-09-17T04:19:51.116Z,87.20
2018-09-17T04:22:19.808Z,87.50
2018-09-17T04:24:47.986Z,91.40
2018-09-17T04:27:16.135Z,95.70
2018-09-17T04:29:44.285Z,94.20
2018-09-17T04:32:12.708Z,86.20
2018-09-17T04:34:40.874Z,86.70
2018-09-17T04:37:09.036Z,86.90
2018-09-17T04:39:37.232Z,87.10
2018-09-17T04:42:05.421Z,87.40
2018-09-17T04:44:33.600Z,87.50
2018-09-17T04:47:01.785Z,87.50
2018-09-17T04:49:30.061Z,88.40
2018-09-17T04:51:58.275Z,92.60
2018-09-17T04:54:26.482Z,88.10
2018-09-17T04:56:54.775Z,88.30
2018-09-17T04:59:22.920Z,88.20
2018-09-17T05:01:51.215Z,87.40
2018-09-17T05:04:19.370Z,87.50
2018-09-17T05:06:47.556Z,87.60
2018-09-17T05:09:15.732Z,87.30
2018-09-17T05:11:43.880Z,87.10
2018-09-17T05:14:12.036Z,87.60
2018-09-17T05:16:40.224Z,87.10
2018-09-17T05:19:08.373Z,86.90
2018-09-17T05:21:36.566Z,86.50
2018-09-17T05:24:04.772Z,86.20
2018-09-17T05:26:33.045Z,86.30
2018-09-17T05:29:01.257Z,86.20
2018-09-17T05:31:29.429Z,86.50
2018-09-17T05:33:57.588Z,86.20
2018-09-17T05:36:25.746Z,85.60
2018-09-17T05:38:53.990Z,85.00
2018-09-17T05:41:22.165Z,84.90
2018-09-17T05:43:50.360Z,85.40
2018-09-17T05:46:19.414Z,85.10
2018-09-17T05:48:47.574Z,84.70
2018-09-17T05:51:15.732Z,84.50
2018-09-17T05:53:43.901Z,84.50
2018-09-17T05:56:12.093Z,84.70
2018-09-17T05:58:40.332Z,84.80
2018-09-17T06:01:08.815Z,84.70
2018-09-17T06:03:37.026Z,84.90
2018-09-17T06:06:05.201Z,84.50
2018-09-17T06:08:33.375Z,84.40
2018-09-17T06:11:01.578Z,85.10
2018-09-17T06:13:29.732Z,84.80
2018-09-17T06:15:57.947Z,85.10
2018-09-17T06:18:26.141Z,84.70
2018-09-17T06:20:54.365Z,84.10
2018-09-17T06:23:22.671Z,82.40
2018-09-17T06:25:51.072Z,81.30
2018-09-17T06:28:19.248Z,81.50
2018-09-17T06:30:47.471Z,81.10
2018-09-17T06:33:15.640Z,81.00
2018-09-17T06:35:43.806Z,80.60
2018-09-17T06:38:12.013Z,80.40
2018-09-17T06:40:40.161Z,79.60
2018-09-17T06:43:08.369Z,78.30
2018-09-17T06:45:36.552Z,76.80
2018-09-17T06:48:04.722Z,77.20
2018-09-17T06:50:32.887Z,76.20
2018-09-17T06:53:01.248Z,76.00
2018-09-17T06:55:29.651Z,75.90
2018-09-17T06:57:57.821Z,75.80
2018-09-17T07:00:26.021Z,76.00
2018-09-17T07:02:54.196Z,76.00
2018-09-17T07:05:22.370Z,75.20
2018-09-17T07:07:50.563Z,75.40
2018-09-17T07:10:18.750Z,74.70
2018-09-17T07:12:46.915Z,74.10
2018-09-17T07:15:15.100Z,73.70
2018-09-17T07:17:43.320Z,73.40
2018-09-17T07:20:11.550Z,73.10
2018-09-17T07:22:39.735Z,72.30
2018-09-17T07:25:07.936Z,71.00
2018-09-17T07:27:36.085Z,69.90
2018-09-17T07:30:04.269Z,69.00
2018-09-17T07:32:32.488Z,67.90
2018-09-17T07:35:00.592Z,68.00
2018-09-17T07:37:28.753Z,67.20
2018-09-17T07:39:56.893Z,66.00
2018-09-17T07:42:25.079Z,66.20
2018-09-17T07:44:53.298Z,66.10
2018-09-17T07:47:21.423Z,66.00
2018-09-17T07:49:49.617Z,65.60
2018-09-17T07:52:17.777Z,64.60
2018-09-17T07:54:45.944Z,65.00
2018-09-17T07:57:14.599Z,65.80
2018-09-17T07:59:42.739Z,64.40
2018-09-17T08:02:10.913Z,65.00
2018-09-17T08:04:39.041Z,64.60
2018-09-17T08:07:07.235Z,63.70
2018-09-17T08:09:35.392Z,62.70
2018-09-17T08:12:05.930Z,62.60
2018-09-17T08:14:34.251Z,63.30
2018-09-17T08:17:02.465Z,62.50
2018-09-17T08:19:30.686Z,62.00
2018-09-17T08:21:58.900Z,61.80
2018-09-17T08:24:27.047Z,60.50
2018-09-17T08:26:55.203Z,59.80
2018-09-17T08:29:23.348Z,59.90
2018-09-17T08:31:51.521Z,59.20
2018-09-17T08:34:19.640Z,58.80
2018-09-17T08:36:47.815Z,59.30
2018-09-17T08:39:15.944Z,57.50
2018-09-17T08:41:44.115Z,58.40
2018-09-17T08:44:12.669Z,58.60
2018-09-17T08:46:40.816Z,58.30
2018-09-17T08:49:08.978Z,57.20
2018-09-17T08:51:37.165Z,57.10
2018-09-17T08:54:05.483Z,56.10
2018-09-17T08:56:39.064Z,56.60
2018-09-17T08:59:12.753Z,56.30
2018-09-17T09:01:46.491Z,55.50
2018-09-17T09:04:20.260Z,55.50
2018-09-17T09:07:54.684Z,55.50
2018-09-17T09:10:28.244Z,55.40
2018-09-17T09:13:02.331Z,54.30
2018-09-17T09:15:36.294Z,53.50
2018-09-17T09:18:05.408Z,53.70
2018-09-17T09:20:33.640Z,52.50
2018-09-17T09:23:01.794Z,51.90
2018-09-17T09:25:30.019Z,52.20
2018-09-17T09:27:58.720Z,51.60
2018-09-17T09:30:26.856Z,51.00
2018-09-17T09:32:55.054Z,51.30
2018-09-17T09:35:23.606Z,50.00
2018-09-17T09:37:52.292Z,50.10
2018-09-17T09:40:20.468Z,49.80
2018-09-17T09:42:48.650Z,49.30
2018-09-17T09:45:17.436Z,49.20
2018-09-17T09:47:46.663Z,47.90
2018-09-17T09:50:14.839Z,46.30
2018-09-17T09:52:43.012Z,46.10
2018-09-17T09:55:11.220Z,44.60
2018-09-17T09:57:40.181Z,45.00
2018-09-17T10:00:15.297Z,44.80
2018-09-17T10:02:47.402Z,42.60
2018-09-17T10:05:24.931Z,41.90
2018-09-17T10:07:53.169Z,40.00
2018-09-17T10:10:34.376Z,40.80
2018-09-17T10:13:14.104Z,41.10
2018-09-17T10:15:51.821Z,39.60
2018-09-17T10:21:14.155Z,39.20
2018-09-17T10:23:42.306Z,39.70
2018-09-17T10:26:10.453Z,39.20
2018-09-17T10:28:38.636Z,39.40
2018-09-17T10:31:06.865Z,38.40
2018-09-17T10:33:35.009Z,38.10
2018-09-17T10:36:03.182Z,36.00
2018-09-17T10:38:31.326Z,36.70
2018-09-17T10:40:59.477Z,37.00
2018-09-17T10:43:27.645Z,36.30
2018-09-17T10:45:55.784Z,35.60
2018-09-17T10:48:23.916Z,35.60
2018-09-17T10:50:52.268Z,34.10
2018-09-17T10:53:20.413Z,34.10
2018-09-17T10:55:49.906Z,36.10
2018-09-17T10:58:18.065Z,33.20
2018-09-17T11:00:46.196Z,33.10
2018-09-17T11:03:14.327Z,33.30
2018-09-17T11:05:42.545Z,32.50
2018-09-17T11:08:10.764Z,32.50
2018-09-17T11:10:38.862Z,33.40
2018-09-17T11:13:07.057Z,31.60
2018-09-17T11:15:40.621Z,32.60
2018-09-17T11:18:08.903Z,31.90
2018-09-17T11:20:37.043Z,31.90
2018-09-17T11:23:05.189Z,32.90
2018-09-17T11:25:33.348Z,31.90
2018-09-17T11:28:01.513Z,32.30
2018-09-17T11:30:29.674Z,32.70
2018-09-17T11:32:57.957Z,32.20
2018-09-17T11:35:26.088Z,32.00
2018-09-17T11:37:54.245Z,32.70
2018-09-17T11:40:22.371Z,32.80
2018-09-17T11:42:56.144Z,33.20
2018-09-17T11:45:24.296Z,33.90
2018-09-17T11:47:52.445Z,34.20
2018-09-17T11:50:20.613Z,33.90
2018-09-17T11:52:48.980Z,32.90
2018-09-17T11:55:17.200Z,35.10
2018-09-17T11:57:45.377Z,35.20
2018-09-17T12:00:17.773Z,34.70
2018-09-17T12:02:51.337Z,34.30
2018-09-17T12:05:24.944Z,33.90
2018-09-17T12:07:53.088Z,34.30
2018-09-17T12:10:21.216Z,34.70
2018-09-17T12:12:49.369Z,34.30
2018-09-17T12:15:17.532Z,32.40
2018-09-17T12:17:45.726Z,32.20
2018-09-17T12:20:13.895Z,32.80
2018-09-17T12:22:42.057Z,31.70
2018-09-17T12:25:10.196Z,32.40
2018-09-17T12:27:38.341Z,32.40
2018-09-17T12:30:06.710Z,34.30
2018-09-17T12:32:34.974Z,33.10
2018-09-17T12:35:03.145Z,34.30
2018-09-17T12:37:31.302Z,32.60
2018-09-17T12:39:59.456Z,32.80
2018-09-17T12:42:27.685Z,32.80
2018-09-17T12:44:55.849Z,33.00
2018-09-17T12:47:23.986Z,34.00
2018-09-17T12:49:52.133Z,33.60
2018-09-17T12:52:20.291Z,34.50
2018-09-17T12:54:48.494Z,33.20
2018-09-17T12:57:16.642Z,32.50
2018-09-17T12:59:44.784Z,31.90
2018-09-17T13:02:12.927Z,32.60
2018-09-17T13:04:41.075Z,33.90
2018-09-17T13:07:09.224Z,33.10
2018-09-17T13:09:37.381Z,32.30
2018-09-17T13:12:05.561Z,31.60
2018-09-17T13:14:33.708Z,31.90
2018-09-17T13:17:01.904Z,32.20
2018-09-17T13:19:30.037Z,32.30
2018-09-17T13:21:58.179Z,33.60
2018-09-17T13:24:26.324Z,35.80
2018-09-17T13:26:54.470Z,34.60
2018-09-17T13:29:22.626Z,34.70
2018-09-17T13:31:50.817Z,35.30
2018-09-17T13:34:18.952Z,34.50
2018-09-17T13:36:47.174Z,33.10
2018-09-17T13:39:15.330Z,32.30
2018-09-17T13:41:43.545Z,32.30
2018-09-17T13:44:11.687Z,32.20
2018-09-17T13:46:39.878Z,32.70
2018-09-17T13:49:08.045Z,33.10
2018-09-17T13:51:36.215Z,32.30
2018-09-17T13:54:04.400Z,32.80
2018-09-17T13:56:32.531Z,32.60
2018-09-17T13:59:00.674Z,32.70
2018-09-17T14:01:28.865Z,33.10
2018-09-17T14:03:56.988Z,33.40
2018-09-17T14:06:25.146Z,33.30
2018-09-17T14:08:53.285Z,32.40
2018-09-17T14:11:21.464Z,33.10
2018-09-17T14:13:49.644Z,33.40
2018-09-17T14:16:23.152Z,32.70
2018-09-17T14:18:51.395Z,32.60
2018-09-17T14:21:19.615Z,32.20
2018-09-17T14:23:47.765Z,32.60
2018-09-17T14:26:15.991Z,32.70
2018-09-17T14:28:44.116Z,33.00
2018-09-17T14:31:12.269Z,32.70
2018-09-17T14:33:41.000Z,32.60
2018-09-17T14:36:09.220Z,32.70
2018-09-17T14:38:37.386Z,33.30
2018-09-17T14:41:05.524Z,34.00
2018-09-17T14:43:33.742Z,32.80
2018-09-17T14:46:01.867Z,32.00
2018-09-17T14:48:30.027Z,32.20
2018-09-17T14:50:58.160Z,32.40
2018-09-17T14:53:26.365Z,32.80
2018-09-17T14:55:54.566Z,32.80
2018-09-17T14:58:22.814Z,33.50
2018-09-17T15:00:50.908Z,33.80
2018-09-17T15:03:19.128Z,33.20
2018-09-17T15:05:47.304Z,33.30
2018-09-17T15:08:15.611Z,33.70
2018-09-17T15:10:43.739Z,33.20
2018-09-17T15:13:11.894Z,34.00
2018-09-17T15:15:46.538Z,34.90
2018-09-17T15:18:15.608Z,34.00
2018-09-17T15:20:43.983Z,33.70
2018-09-17T15:23:12.172Z,33.60
2018-09-17T15:25:40.380Z,34.00
2018-09-17T15:28:08.545Z,34.40
2018-09-17T15:30:36.792Z,33.70
2018-09-17T15:33:05.060Z,34.10
2018-09-17T15:35:33.253Z,35.00
2018-09-17T15:38:01.425Z,33.90
2018-09-17T15:40:29.669Z,34.00
2018-09-17T15:42:57.744Z,34.70
2018-09-17T15:45:25.928Z,34.70
2018-09-17T15:47:54.295Z,34.00
2018-09-17T15:50:22.523Z,33.80
2018-09-17T15:52:50.656Z,34.10
2018-09-17T15:55:18.852Z,35.40
2018-09-17T15:57:47.081Z,35.70
2018-09-17T16:00:15.323Z,36.30
2018-09-17T16:02:43.504Z,37.10
2018-09-17T16:05:11.645Z,37.30
2018-09-17T16:07:39.785Z,37.90
2018-09-17T16:10:08.271Z,38.50
2018-09-17T16:12:36.741Z,39.40
2018-09-17T16:15:04.912Z,40.00
2018-09-17T16:17:33.077Z,40.00
2018-09-17T16:20:01.658Z,40.70
2018-09-17T16:22:30.098Z,41.00
2018-09-17T16:25:00.752Z,41.30
2018-09-17T16:27:29.600Z,41.70
2018-09-17T16:29:59.164Z,42.00
2018-09-17T16:32:29.092Z,43.40
2018-09-17T16:34:58.455Z,44.10
2018-09-17T16:37:27.492Z,44.00
2018-09-17T16:39:56.617Z,43.80
2018-09-17T16:42:25.779Z,43.60
2018-09-17T16:44:54.007Z,43.90
2018-09-17T16:47:22.333Z,44.10
2018-09-17T16:49:50.504Z,44.40
2018-09-17T16:52:18.684Z,44.70
2018-09-17T16:54:46.885Z,44.90
2018-09-17T16:57:15.088Z,45.40
2018-09-17T16:59:43.326Z,45.40
2018-09-17T17:02:11.542Z,45.40
2018-09-17T17:04:39.714Z,45.90
2018-09-17T17:07:08.004Z,46.10
2018-09-17T17:09:36.180Z,46.30
2018-09-17T17:12:04.384Z,46.80
2018-09-17T17:14:32.685Z,47.50
2018-09-17T17:17:00.925Z,48.10
2018-09-17T17:19:29.133Z,49.20
2018-09-17T17:21:57.472Z,49.30
2018-09-17T17:24:25.550Z,49.30
2018-09-17T17:26:53.765Z,50.20
2018-09-17T17:29:23.777Z,50.40
2018-09-17T17:31:52.020Z,50.80
2018-09-17T17:34:21.347Z,51.40
2018-09-17T17:36:50.758Z,51.50
2018-09-17T17:39:19.862Z,52.20
2018-09-17T17:41:48.367Z,52.60
2018-09-17T17:44:17.800Z,52.90
2018-09-17T17:46:46.209Z,53.00
2018-09-17T17:49:14.613Z,53.40
2018-09-17T17:51:42.806Z,53.50
2018-09-17T17:54:12.126Z,53.80
2018-09-17T17:56:41.384Z,53.80
2018-09-17T17:59:12.157Z,54.10
2018-09-17T18:01:40.707Z,54.00
2018-09-17T18:04:09.260Z,54.10
2018-09-17T18:06:37.826Z,54.00
2018-09-17T18:09:10.439Z,54.20
2018-09-17T18:11:39.064Z,54.40
2018-09-17T18:14:07.481Z,54.80
2018-09-17T18:16:42.313Z,55.10
2018-09-17T18:19:11.172Z,54.80
2018-09-17T18:21:39.902Z,55.40
2018-09-17T18:24:08.020Z,55.50
2018-09-17T18:26:36.185Z,55.40
2018-09-17T18:29:04.316Z,55.70
2018-09-17T18:31:32.466Z,55.30
2018-09-17T18:34:00.593Z,55.20
2018-09-17T18:36:28.790Z,55.80
2018-09-17T18:38:56.965Z,55.50
2018-09-17T18:41:25.090Z,55.50
2018-09-17T18:43:53.239Z,55.60
2018-09-17T18:46:21.483Z,55.70
2018-09-17T18:48:49.657Z,55.70
2018-09-17T18:51:17.894Z,56.20
2018-09-17T18:53:46.012Z,55.90
2018-09-17T18:56:14.132Z,56.50
2018-09-17T18:58:42.312Z,56.70
2018-09-17T19:01:10.429Z,57.10
2018-09-17T19:03:38.555Z,57.20
2018-09-17T19:06:06.912Z,57.60
2018-09-17T19:08:35.046Z,57.40
2018-09-17T19:11:03.188Z,57.00
2018-09-17T19:13:31.366Z,57.40
2018-09-17T19:15:59.809Z,58.10
2018-09-17T19:18:27.932Z,57.80
2018-09-17T19:20:56.283Z,57.70
2018-09-17T19:23:29.800Z,58.40
2018-09-17T19:25:58.058Z,59.30
2018-09-17T19:28:31.513Z,59.60
2018-09-17T19:30:59.693Z,59.60
2018-09-17T19:33:27.820Z,60.20
2018-09-17T19:35:56.089Z,62.60
2018-09-17T19:38:29.422Z,63.70
2018-09-17T19:40:58.909Z,63.00
2018-09-17T19:43:27.233Z,63.50
2018-09-17T19:46:00.964Z,63.90
2018-09-17T19:48:29.150Z,64.50
2018-09-17T19:51:02.808Z,64.30
2018-09-17T19:53:30.997Z,65.10
2018-09-17T19:55:59.210Z,65.50
2018-09-17T19:58:32.913Z,64.30
2018-09-17T20:01:01.226Z,64.90
2018-09-17T20:03:29.394Z,65.10
2018-09-17T20:06:03.014Z,66.70
2018-09-17T20:08:31.171Z,66.30
2018-09-17T20:10:59.790Z,66.20
2018-09-17T20:13:28.019Z,66.20
2018-09-17T20:15:59.410Z,66.50
2018-09-17T20:18:28.141Z,67.70
2018-09-17T20:20:56.314Z,66.90
2018-09-17T20:23:24.484Z,67.20
2018-09-17T20:25:52.702Z,66.90
2018-09-17T20:28:20.882Z,67.30
2018-09-17T20:30:49.085Z,67.60
2018-09-17T20:33:17.262Z,68.10
2018-09-17T20:35:46.095Z,69.00
2018-09-17T20:38:14.286Z,69.10
2018-09-17T20:40:42.446Z,69.10
2018-09-17T20:43:10.667Z,68.30
2018-09-17T20:45:38.995Z,69.00
2018-09-17T20:48:07.210Z,68.80
2018-09-17T20:50:35.410Z,68.70
2018-09-17T20:53:05.079Z,69.10
2018-09-17T20:55:33.293Z,70.50
2018-09-17T20:58:01.550Z,70.90
